createdAt,value
2018-07-27T00:02:14.015Z,99968.98
2018-07-27T00:04:42.603Z,99963.83
2018-07-27T00:07:11.247Z,99964.20
2018-07-27T00:09:39.711Z,99969.78
2018-07-27T00:12:08.240Z,99970.20
2018-07-27T00:14:36.801Z,99968.63
2018-07-27T00:17:05.359Z,99966.22
2018-07-27T00:19:33.886Z,99966.48
2018-07-27T00:22:02.623Z,99964.89
2018-07-27T00:24:31.137Z,99973.75
2018-07-27T00:26:59.681Z,99970.25
2018-07-27T00:29:28.556Z,99975.39
2018-07-27T00:31:57.100Z,99972.92
2018-07-27T00:34:25.635Z,99972.16
2018-07-27T00:36:54.082Z,99965.81
2018-07-27T00:39:22.656Z,99972.23
2018-07-27T00:41:51.140Z,99966.05
2018-07-27T00:44:19.849Z,99965.89
2018-07-27T00:46:48.319Z,99957.60
2018-07-27T00:49:16.837Z,99971.80
2018-07-27T00:51:45.333Z,99963.50
2018-07-27T00:54:13.859Z,99967.47
2018-07-27T00:56:42.431Z,99963.87
2018-07-27T00:59:11.177Z,99969.31
2018-07-27T01:01:39.635Z,99962.66
2018-07-27T01:04:08.319Z,99965.36
2018-07-27T01:06:37.062Z,99961.18
2018-07-27T01:09:08.015Z,99965.86
2018-07-27T01:11:36.481Z,99959.09
2018-07-27T01:14:05.183Z,99955.89
2018-07-27T01:16:33.659Z,99956.42
2018-07-27T01:19:02.140Z,99956.01
2018-07-27T01:21:30.751Z,99955.67
2018-07-27T01:23:59.242Z,99952.67
2018-07-27T01:26:27.751Z,99963.14
2018-07-27T01:28:56.187Z,99949.34
2018-07-27T01:31:24.679Z,99950.48
2018-07-27T01:33:53.575Z,99948.86
2018-07-27T01:36:22.122Z,99940.13
2018-07-27T01:38:50.523Z,99935.03
2018-07-27T01:41:18.995Z,99945.05
2018-07-27T01:43:47.488Z,99946.47
2018-07-27T01:46:16.025Z,99938.81
2018-07-27T01:48:44.730Z,99944.01
2018-07-27T01:51:13.183Z,99944.42
2018-07-27T01:53:41.593Z,99951.09
2018-07-27T01:56:10.203Z,99938.52
2018-07-27T01:58:38.635Z,99944.55
2018-07-27T02:01:07.353Z,99950.89
2018-07-27T02:03:35.839Z,99951.62
2018-07-27T02:06:04.322Z,99953.34
2018-07-27T02:08:32.831Z,99951.30
2018-07-27T02:11:01.443Z,99953.11
2018-07-27T02:13:29.871Z,99943.20
2018-07-27T02:15:58.305Z,99941.98
2018-07-27T02:18:27.110Z,99946.15
2018-07-27T02:20:55.679Z,99945.18
2018-07-27T02:23:24.209Z,99941.26
2018-07-27T02:25:52.847Z,99947.14
2018-07-27T02:28:21.367Z,99940.56
2018-07-27T02:30:49.880Z,99937.70
2018-07-27T02:33:18.405Z,99940.33
2018-07-27T02:35:46.885Z,99944.21
2018-07-27T02:38:15.272Z,99947.44
2018-07-27T02:40:43.770Z,99942.98
2018-07-27T02:43:12.228Z,99943.64
2018-07-27T02:45:40.717Z,99941.34
2018-07-27T02:48:09.423Z,99937.19
2018-07-27T02:50:37.955Z,99941.42
2018-07-27T02:53:06.432Z,99945.73
2018-07-27T02:55:35.004Z,99943.12
2018-07-27T02:58:03.406Z,99942.30
2018-07-27T03:00:31.888Z,99942.02
2018-07-27T03:03:00.595Z,99933.77
2018-07-27T03:05:28.999Z,99936.94
2018-07-27T03:07:57.507Z,99937.18
2018-07-27T03:10:26.148Z,99938.50
2018-07-27T03:12:54.597Z,99942.39
2018-07-27T03:15:23.011Z,99941.72
2018-07-27T03:17:51.475Z,99934.19
2018-07-27T03:20:19.964Z,99937.36
2018-07-27T03:22:48.471Z,99927.56
2018-07-27T03:25:17.175Z,99925.13
2018-07-27T03:27:45.627Z,99930.34
2018-07-27T03:30:14.144Z,99929.98
2018-07-27T03:32:42.757Z,99935.14
2018-07-27T03:35:11.156Z,99937.39
2018-07-27T03:37:39.637Z,99933.48
2018-07-27T03:40:08.119Z,99939.09
2018-07-27T03:42:36.615Z,99935.54
2018-07-27T03:45:05.395Z,99929.02
2018-07-27T03:47:34.026Z,99927.98
2018-07-27T03:50:02.531Z,99927.94
2018-07-27T03:52:31.115Z,99929.59
2018-07-27T03:54:59.755Z,99937.70
2018-07-27T03:57:28.235Z,99935.56
2018-07-27T03:59:56.663Z,99932.66
2018-07-27T04:02:25.352Z,99937.05
2018-07-27T04:04:53.979Z,99938.27
2018-07-27T04:07:22.501Z,99940.39
2018-07-27T04:09:50.983Z,99942.23
2018-07-27T04:12:23.439Z,99942.47
2018-07-27T04:14:52.897Z,99940.91
2018-07-27T04:17:21.287Z,99937.70
2018-07-27T04:19:50.187Z,99941.39
2018-07-27T04:22:18.887Z,99945.48
2018-07-27T04:24:47.347Z,99942.14
2018-07-27T04:27:15.760Z,99948.98
2018-07-27T04:29:44.399Z,99948.34
2018-07-27T04:32:12.824Z,99950.44
2018-07-27T04:34:41.563Z,99951.06
2018-07-27T04:37:10.147Z,99945.42
2018-07-27T04:39:38.744Z,99953.38
2018-07-27T04:42:07.191Z,99948.05
2018-07-27T04:44:35.639Z,99950.58
2018-07-27T04:47:04.231Z,99947.39
2018-07-27T04:49:32.722Z,99948.52
2018-07-27T04:52:01.394Z,99948.41
2018-07-27T04:54:29.832Z,99944.12
2018-07-27T04:56:58.401Z,99940.89
2018-07-27T04:59:26.904Z,99938.17
2018-07-27T05:01:55.448Z,99942.00
2018-07-27T05:04:23.951Z,99943.36
2018-07-27T05:06:52.495Z,99946.57
2018-07-27T05:09:23.252Z,99944.62
2018-07-27T05:11:52.299Z,99947.23
2018-07-27T05:14:20.828Z,99945.50
2018-07-27T05:16:49.314Z,99947.27
2018-07-27T05:19:17.968Z,99947.44
2018-07-27T05:21:46.359Z,99951.83
2018-07-27T05:24:14.782Z,99955.05
2018-07-27T05:26:43.286Z,99951.52
2018-07-27T05:29:11.782Z,99948.57
2018-07-27T05:31:40.289Z,99944.78
2018-07-27T05:34:09.131Z,99945.28
2018-07-27T05:36:37.567Z,99952.79
2018-07-27T05:39:08.975Z,99956.27
2018-07-27T05:41:37.443Z,99954.19
2018-07-27T05:44:06.039Z,99950.91
2018-07-27T05:46:34.733Z,99952.56
2018-07-27T05:49:03.229Z,99958.92
2018-07-27T05:51:31.699Z,99956.91
2018-07-27T05:54:00.251Z,99958.45
2018-07-27T05:56:29.263Z,99957.24
2018-07-27T05:58:57.683Z,99954.30
2018-07-27T06:01:26.455Z,99955.49
2018-07-27T06:03:55.032Z,99958.80
2018-07-27T06:06:23.415Z,99956.09
2018-07-27T06:08:52.167Z,99957.19
2018-07-27T06:11:20.695Z,99950.62
2018-07-27T06:13:49.167Z,99956.95
2018-07-27T06:16:17.969Z,99962.45
2018-07-27T06:18:46.485Z,99960.67
2018-07-27T06:21:15.163Z,99959.44
2018-07-27T06:23:44.372Z,99961.16
2018-07-27T06:26:13.143Z,99955.56
2018-07-27T06:28:41.672Z,99958.08
2018-07-27T06:31:10.450Z,99952.34
2018-07-27T06:33:38.968Z,99959.99
2018-07-27T06:36:07.406Z,99949.86
2018-07-27T06:38:35.877Z,99953.91
2018-07-27T06:41:04.356Z,99947.70
2018-07-27T06:43:32.779Z,99957.96
2018-07-27T06:46:01.220Z,99954.20
2018-07-27T06:48:29.759Z,99958.67
2018-07-27T06:50:58.215Z,99955.04
2018-07-27T06:53:26.738Z,99963.23
2018-07-27T06:55:55.120Z,99960.67
2018-07-27T06:58:23.618Z,99951.94
2018-07-27T07:00:52.459Z,99956.32
2018-07-27T07:03:20.886Z,99956.95
2018-07-27T07:05:49.694Z,99958.46
2018-07-27T07:08:18.358Z,99955.89
2018-07-27T07:10:46.894Z,99953.33
2018-07-27T07:13:15.379Z,99957.70
2018-07-27T07:15:43.899Z,99949.23
2018-07-27T07:18:12.478Z,99946.09
2018-07-27T07:20:41.067Z,99943.86
2018-07-27T07:23:09.835Z,99941.78
2018-07-27T07:25:38.397Z,99945.58
2018-07-27T07:28:06.795Z,99937.33
2018-07-27T07:30:35.255Z,99949.16
2018-07-27T07:33:03.751Z,99947.08
2018-07-27T07:35:32.355Z,99942.97
2018-07-27T07:38:00.829Z,99939.88
2018-07-27T07:40:29.339Z,99935.03
2018-07-27T07:42:57.940Z,99934.02
2018-07-27T07:45:26.704Z,99933.82
2018-07-27T07:47:55.091Z,99934.64
2018-07-27T07:50:23.595Z,99935.01
2018-07-27T07:52:52.283Z,99927.23
2018-07-27T07:55:21.084Z,99937.45
2018-07-27T07:57:49.592Z,99936.16
2018-07-27T08:00:18.139Z,99933.64
2018-07-27T08:02:46.807Z,99934.97
2018-07-27T08:05:15.284Z,99926.48
2018-07-27T08:07:44.016Z,99925.41
2018-07-27T08:10:12.423Z,99916.73
2018-07-27T08:12:40.959Z,99916.33
2018-07-27T08:15:09.739Z,99914.13
2018-07-27T08:17:38.243Z,99919.00
2018-07-27T08:20:06.807Z,99913.29
2018-07-27T08:22:35.371Z,99912.06
2018-07-27T08:25:03.799Z,99911.55
2018-07-27T08:27:32.243Z,99909.23
2018-07-27T08:30:00.927Z,99906.25
2018-07-27T08:32:29.332Z,99907.19
2018-07-27T08:34:57.830Z,99910.41
2018-07-27T08:37:26.504Z,99908.21
2018-07-27T08:39:55.244Z,99907.95
2018-07-27T08:42:23.719Z,99901.97
2018-07-27T08:44:52.232Z,99891.73
2018-07-27T08:47:20.726Z,99893.08
2018-07-27T08:49:49.235Z,99893.56
2018-07-27T08:52:18.129Z,99887.75
2018-07-27T08:54:46.643Z,99884.66
2018-07-27T08:57:15.108Z,99883.12
2018-07-27T08:59:43.763Z,99880.89
2018-07-27T09:02:12.275Z,99884.27
2018-07-27T09:04:40.672Z,99881.06
2018-07-27T09:07:09.227Z,99878.78
2018-07-27T09:09:37.696Z,99883.39
2018-07-27T09:12:07.115Z,99871.85
2018-07-27T09:14:35.965Z,99883.50
2018-07-27T09:17:04.420Z,99872.55
2018-07-27T09:19:32.975Z,99864.09
2018-07-27T09:22:01.544Z,99873.69
2018-07-27T09:24:30.287Z,99868.39
2018-07-27T09:26:58.584Z,99869.89
2018-07-27T09:29:27.183Z,99867.66
2018-07-27T09:31:55.647Z,99873.56
2018-07-27T09:34:24.179Z,99863.19
2018-07-27T09:36:53.100Z,99858.92
2018-07-27T09:39:21.540Z,99868.50
2018-07-27T09:41:50.091Z,99860.77
2018-07-27T09:44:18.483Z,99869.09
2018-07-27T09:46:46.918Z,99856.61
2018-07-27T09:49:15.371Z,99862.81
2018-07-27T09:51:44.240Z,99857.88
2018-07-27T09:54:12.655Z,99861.90
2018-07-27T09:56:43.083Z,99858.77
2018-07-27T09:59:12.471Z,99858.09
2018-07-27T10:01:40.947Z,99867.09
2018-07-27T10:04:09.551Z,99849.85
2018-07-27T10:06:38.230Z,99852.14
2018-07-27T10:09:07.920Z,99853.31
2018-07-27T10:11:36.557Z,99849.26
2018-07-27T10:14:05.268Z,99843.17
2018-07-27T10:16:33.779Z,99842.82
2018-07-27T10:19:05.260Z,99839.42
2018-07-27T10:21:33.886Z,99842.26
2018-07-27T10:24:02.404Z,99846.03
2018-07-27T10:26:30.786Z,99836.49
2018-07-27T10:28:59.275Z,99836.87
2018-07-27T10:31:27.804Z,99833.73
2018-07-27T10:33:56.463Z,99826.46
2018-07-27T10:36:24.862Z,99833.91
2018-07-27T10:38:53.463Z,99825.99
2018-07-27T10:41:22.155Z,99825.17
2018-07-27T10:43:50.536Z,99825.73
2018-07-27T10:46:18.922Z,99814.91
2018-07-27T10:48:47.523Z,99829.30
2018-07-27T10:51:16.064Z,99813.53
2018-07-27T10:53:44.543Z,99817.26
2018-07-27T10:56:13.192Z,99799.52
2018-07-27T10:58:41.779Z,99802.47
2018-07-27T11:01:10.191Z,99796.77
2018-07-27T11:03:38.659Z,99801.36
2018-07-27T11:06:07.154Z,99802.07
2018-07-27T11:08:35.635Z,99794.53
2018-07-27T11:11:04.279Z,99796.97
2018-07-27T11:13:33.214Z,99790.67
2018-07-27T11:16:01.712Z,99788.97
2018-07-27T11:18:30.905Z,99793.89
2018-07-27T11:21:01.272Z,99790.81
2018-07-27T11:23:32.770Z,99785.34
2018-07-27T11:26:01.216Z,99786.24
2018-07-27T11:28:29.839Z,99782.28
2018-07-27T11:30:59.677Z,99779.73
2018-07-27T11:33:29.013Z,99771.45
2018-07-27T11:35:57.554Z,99768.59
2018-07-27T11:38:26.052Z,99770.56
2018-07-27T11:40:55.325Z,99767.42
2018-07-27T11:43:23.734Z,99762.95
2018-07-27T11:45:52.411Z,99758.17
2018-07-27T11:48:20.843Z,99760.82
2018-07-27T11:50:49.239Z,99751.95
2018-07-27T11:53:17.855Z,99758.52
2018-07-27T11:55:46.315Z,99758.86
2018-07-27T11:58:14.790Z,99742.50
2018-07-27T12:00:43.433Z,99743.02
2018-07-27T12:03:11.883Z,99747.08
2018-07-27T12:05:40.439Z,99737.72
2018-07-27T12:08:08.924Z,99742.30
2018-07-27T12:10:37.485Z,99740.91
2018-07-27T12:13:06.127Z,99734.86
2018-07-27T12:15:34.851Z,99734.98
2018-07-27T12:18:03.262Z,99729.97
2018-07-27T12:20:32.431Z,99732.54
2018-07-27T12:23:00.895Z,99725.35
2018-07-27T12:25:29.375Z,99721.70
2018-07-27T12:27:57.871Z,99724.64
2018-07-27T12:30:26.379Z,99713.63
2018-07-27T12:32:54.883Z,99715.19
2018-07-27T12:35:23.291Z,99712.73
2018-07-27T12:37:51.746Z,99714.47
2018-07-27T12:40:20.155Z,99711.59
2018-07-27T12:42:48.649Z,99710.33
2018-07-27T12:45:17.287Z,99713.27
2018-07-27T12:47:45.791Z,99713.48
2018-07-27T12:50:14.316Z,99705.30
2018-07-27T12:52:42.983Z,99699.69
2018-07-27T12:55:11.501Z,99704.45
2018-07-27T12:57:39.987Z,99698.09
2018-07-27T13:00:09.675Z,99687.17
2018-07-27T13:02:38.237Z,99687.09
2018-07-27T13:05:06.980Z,99684.47
2018-07-27T13:07:35.421Z,99688.33
2018-07-27T13:10:05.366Z,99688.03
2018-07-27T13:12:35.319Z,99682.78
2018-07-27T13:15:04.253Z,99678.91
2018-07-27T13:17:32.682Z,99677.31
2018-07-27T13:20:01.211Z,99677.78
2018-07-27T13:22:29.706Z,99671.22
2018-07-27T13:24:58.460Z,99664.05
2018-07-27T13:27:26.999Z,99663.41
2018-07-27T13:29:55.871Z,99659.89
2018-07-27T13:32:24.353Z,99657.06
2018-07-27T13:34:55.120Z,99653.45
2018-07-27T13:37:25.775Z,99654.89
2018-07-27T13:42:25.503Z,99639.24
2018-07-27T13:44:54.086Z,99641.20
2018-07-27T13:47:22.735Z,99635.18
2018-07-27T13:49:51.188Z,99631.17
2018-07-27T13:52:19.692Z,99624.67
2018-07-27T13:54:48.352Z,99622.92
2018-07-27T13:57:16.880Z,99616.17
2018-07-27T13:59:45.491Z,99621.60
2018-07-27T14:02:14.310Z,99616.52
2018-07-27T14:04:42.758Z,99612.99
2018-07-27T14:07:11.974Z,99609.05
2018-07-27T14:09:40.507Z,99611.53
2018-07-27T14:12:08.909Z,99604.97
2018-07-27T14:14:37.451Z,99612.28
2018-07-27T14:17:06.415Z,99608.74
2018-07-27T14:19:34.907Z,99603.64
2018-07-27T14:22:03.339Z,99599.67
2018-07-27T14:24:32.146Z,99600.56
2018-07-27T14:27:00.559Z,99600.04
2018-07-27T14:29:29.079Z,99596.20
2018-07-27T14:31:57.576Z,99587.81
2018-07-27T14:34:25.996Z,99586.91
2018-07-27T14:36:54.489Z,99592.93
2018-07-27T14:39:23.176Z,99590.19
2018-07-27T14:41:51.621Z,99588.15
2018-07-27T14:44:20.135Z,99585.41
2018-07-27T14:46:48.751Z,99573.14
2018-07-27T14:49:17.494Z,99575.17
2018-07-27T14:51:45.975Z,99567.76
2018-07-27T14:54:15.367Z,99566.21
2018-07-27T14:56:44.117Z,99559.37
2018-07-27T14:59:12.927Z,99555.70
2018-07-27T15:01:41.751Z,99556.55
2018-07-27T15:04:11.062Z,99554.16
2018-07-27T15:06:39.754Z,99564.62
2018-07-27T15:09:11.292Z,99551.39
2018-07-27T15:11:39.791Z,99556.88
2018-07-27T15:14:08.305Z,99547.27
2018-07-27T15:16:36.910Z,99552.70
2018-07-27T15:19:05.596Z,99547.94
2018-07-27T15:21:34.075Z,99550.11
2018-07-27T15:24:02.652Z,99547.48
2018-07-27T15:26:31.131Z,99550.30
2018-07-27T15:28:59.672Z,99541.97
2018-07-27T15:31:28.299Z,99539.09
2018-07-27T15:33:56.871Z,99528.30
2018-07-27T15:36:25.355Z,99532.28
2018-07-27T15:38:53.826Z,99527.47
2018-07-27T15:41:22.402Z,99530.06
2018-07-27T15:43:50.827Z,99525.54
2018-07-27T15:46:19.671Z,99527.98
2018-07-27T15:48:48.142Z,99526.20
2018-07-27T15:51:16.617Z,99514.85
2018-07-27T15:53:45.099Z,99521.22
2018-07-27T15:56:13.580Z,99518.80
2018-07-27T15:58:42.059Z,99511.95
2018-07-27T16:01:10.507Z,99514.69
2018-07-27T16:03:38.932Z,99509.41
2018-07-27T16:06:07.455Z,99502.41
2018-07-27T16:08:36.118Z,99506.55
2018-07-27T16:11:04.579Z,99501.26
2018-07-27T16:13:33.047Z,99502.02
2018-07-27T16:16:01.584Z,99502.24
2018-07-27T16:18:30.032Z,99501.12
2018-07-27T16:20:58.512Z,99499.44
2018-07-27T16:23:27.067Z,99488.67
2018-07-27T16:25:55.546Z,99489.05
2018-07-27T16:28:24.024Z,99486.52
2018-07-27T16:30:52.778Z,99487.00
2018-07-27T16:33:21.321Z,99489.36
2018-07-27T16:35:49.746Z,99487.09
2018-07-27T16:38:18.196Z,99477.15
2018-07-27T16:40:46.672Z,99480.16
2018-07-27T16:43:15.188Z,99479.89
2018-07-27T16:45:43.843Z,99481.67
2018-07-27T16:48:12.267Z,99488.69
2018-07-27T16:50:40.868Z,99477.88
2018-07-27T16:53:09.827Z,99477.44
2018-07-27T16:55:38.390Z,99477.36
2018-07-27T16:58:06.864Z,99474.14
2018-07-27T17:00:35.454Z,99470.06
2018-07-27T17:03:03.940Z,99471.83
2018-07-27T17:05:32.415Z,99467.83
2018-07-27T17:08:00.994Z,99471.00
2018-07-27T17:10:29.411Z,99464.12
2018-07-27T17:12:57.825Z,99462.78
2018-07-27T17:15:26.275Z,99465.19
2018-07-27T17:17:54.724Z,99461.78
2018-07-27T17:20:23.223Z,99462.52
2018-07-27T17:22:52.163Z,99462.11
2018-07-27T17:25:20.693Z,99459.91
2018-07-27T17:27:49.130Z,99462.16
2018-07-27T17:30:17.959Z,99456.88
2018-07-27T17:32:46.414Z,99453.52
2018-07-27T17:35:14.891Z,99457.36
2018-07-27T17:37:43.743Z,99457.05
2018-07-27T17:40:12.275Z,99457.95
2018-07-27T17:42:40.927Z,99456.65
2018-07-27T17:45:09.835Z,99459.02
2018-07-27T17:47:38.427Z,99455.53
2018-07-27T17:50:07.324Z,99454.63
2018-07-27T17:52:36.046Z,99459.81
2018-07-27T17:55:04.492Z,99458.82
2018-07-27T17:57:32.935Z,99459.55
2018-07-27T18:00:01.524Z,99463.66
2018-07-27T18:02:30.079Z,99458.38
2018-07-27T18:04:58.591Z,99460.31
2018-07-27T18:07:27.344Z,99456.84
2018-07-27T18:09:56.487Z,99461.23
2018-07-27T18:12:25.606Z,99460.51
2018-07-27T18:14:54.282Z,99455.33
2018-07-27T18:17:22.784Z,99458.39
2018-07-27T18:19:51.283Z,99460.91
2018-07-27T18:22:19.765Z,99459.08
2018-07-27T18:24:48.219Z,99455.52
2018-07-27T18:27:16.775Z,99460.38
2018-07-27T18:29:45.617Z,99462.12
2018-07-27T18:32:14.497Z,99461.44
2018-07-27T18:34:42.895Z,99457.66
2018-07-27T18:37:11.810Z,99454.63
2018-07-27T18:39:40.316Z,99452.78
2018-07-27T18:42:08.742Z,99453.11
2018-07-27T18:44:37.334Z,99451.69
2018-07-27T18:47:05.734Z,99451.50
2018-07-27T18:49:34.136Z,99448.69
2018-07-27T18:52:02.794Z,99455.73
2018-07-27T18:54:31.238Z,99447.58
2018-07-27T18:56:59.685Z,99444.99
2018-07-27T18:59:28.256Z,99440.25
2018-07-27T19:01:56.681Z,99450.25
2018-07-27T19:04:25.163Z,99454.79
2018-07-27T19:06:53.763Z,99445.92
2018-07-27T19:09:22.270Z,99450.58
2018-07-27T19:11:50.900Z,99443.87
2018-07-27T19:14:19.739Z,99450.55
2018-07-27T19:16:48.199Z,99457.73
2018-07-27T19:19:16.618Z,99455.02
2018-07-27T19:21:45.536Z,99457.73
2018-07-27T19:24:13.939Z,99449.97
2018-07-27T19:26:42.594Z,99459.84
2018-07-27T19:29:11.275Z,99460.93
2018-07-27T19:31:39.775Z,99465.13
2018-07-27T19:34:08.331Z,99467.48
2018-07-27T19:36:36.824Z,99464.93
2018-07-27T19:39:08.031Z,99473.10
2018-07-27T19:41:36.515Z,99474.44
2018-07-27T19:44:05.036Z,99465.02
2018-07-27T19:46:33.611Z,99463.19
2018-07-27T19:49:02.274Z,99475.96
2018-07-27T19:51:30.930Z,99478.31
2018-07-27T19:53:59.534Z,99473.73
2018-07-27T19:56:28.050Z,99474.25
2018-07-27T19:58:56.579Z,99477.22
2018-07-27T20:01:25.089Z,99469.39
2018-07-27T20:03:53.810Z,99470.03
2018-07-27T20:06:22.369Z,99478.59
2018-07-27T20:08:50.883Z,99475.12
2018-07-27T20:11:19.397Z,99480.61
2018-07-27T20:13:48.084Z,99479.41
2018-07-27T20:16:16.651Z,99480.20
2018-07-27T20:18:45.615Z,99482.67
2018-07-27T20:21:14.360Z,99481.59
2018-07-27T20:23:43.056Z,99480.30
2018-07-27T20:26:11.818Z,99481.11
2018-07-27T20:28:40.455Z,99482.05
2018-07-27T20:31:08.975Z,99486.08
2018-07-27T20:33:37.589Z,99484.30
2018-07-27T20:36:06.615Z,99481.18
2018-07-27T20:38:35.263Z,99478.13
2018-07-27T20:41:03.810Z,99474.64
2018-07-27T20:43:32.404Z,99469.91
2018-07-27T20:46:00.822Z,99470.64
2018-07-27T20:48:29.485Z,99471.72
2018-07-27T20:50:57.935Z,99469.69
2018-07-27T20:53:26.452Z,99477.38
2018-07-27T20:55:55.173Z,99466.73
2018-07-27T20:58:23.678Z,99463.03
2018-07-27T21:00:52.311Z,99462.66
2018-07-27T21:03:20.839Z,99460.77
2018-07-27T21:05:49.407Z,99461.39
2018-07-27T21:08:17.871Z,99455.62
2018-07-27T21:10:46.653Z,99459.23
2018-07-27T21:13:15.100Z,99452.30
2018-07-27T21:15:43.599Z,99462.58
2018-07-27T21:18:12.044Z,99468.59
2018-07-27T21:20:40.536Z,99461.17
2018-07-27T21:23:09.379Z,99463.79
2018-07-27T21:25:37.923Z,99462.41
2018-07-27T21:28:06.563Z,99464.47
2018-07-27T21:30:35.062Z,99474.58
2018-07-27T21:33:03.551Z,99476.55
2018-07-27T21:35:32.056Z,99472.55
2018-07-27T21:38:00.853Z,99477.28
2018-07-27T21:40:29.517Z,99465.27
2018-07-27T21:42:58.021Z,99470.67
2018-07-27T21:45:26.474Z,99477.45
2018-07-27T21:47:55.135Z,99464.17
2018-07-27T21:50:23.584Z,99467.73
2018-07-27T21:52:52.255Z,99468.13
2018-07-27T21:55:21.018Z,99472.46
2018-07-27T21:57:49.590Z,99475.96
2018-07-27T22:00:18.023Z,99468.47
2018-07-27T22:02:46.790Z,99474.66
2018-07-27T22:05:15.234Z,99480.48
2018-07-27T22:07:43.979Z,99476.63
2018-07-27T22:10:12.497Z,99478.30
2018-07-27T22:12:41.012Z,99477.00
2018-07-27T22:15:14.869Z,99474.44
2018-07-27T22:17:43.380Z,99477.61
2018-07-27T22:20:11.887Z,99481.79
2018-07-27T22:22:40.411Z,99491.14
2018-07-27T22:25:08.873Z,99489.70
2018-07-27T22:27:37.365Z,99493.91
2018-07-27T22:30:08.142Z,99486.62
2018-07-27T22:32:36.707Z,99491.14
2018-07-27T22:35:05.290Z,99484.39
2018-07-27T22:37:33.847Z,99485.70
2018-07-27T22:40:04.664Z,99483.23
2018-07-27T22:42:33.151Z,99483.31
2018-07-27T22:45:01.603Z,99473.61
2018-07-27T22:47:30.472Z,99478.42
2018-07-27T22:49:59.078Z,99480.53
2018-07-27T22:52:27.585Z,99477.34
2018-07-27T22:54:56.033Z,99480.50
2018-07-27T22:57:24.892Z,99479.66
2018-07-27T22:59:53.439Z,99475.52
2018-07-27T23:02:21.955Z,99476.27
2018-07-27T23:04:50.591Z,99473.58
2018-07-27T23:07:19.003Z,99475.48
2018-07-27T23:09:47.427Z,99474.78
2018-07-27T23:12:15.919Z,99471.70
2018-07-27T23:14:44.324Z,99462.45
2018-07-27T23:17:12.778Z,99461.72
2018-07-27T23:19:41.530Z,99466.56
2018-07-27T23:22:09.943Z,99461.78
2018-07-27T23:24:38.452Z,99460.56
2018-07-27T23:27:06.900Z,99461.55
2018-07-27T23:29:35.483Z,99454.70
2018-07-27T23:32:03.901Z,99453.19
2018-07-27T23:34:32.676Z,99457.41
2018-07-27T23:37:01.259Z,99457.71
2018-07-27T23:39:29.791Z,99455.89
2018-07-27T23:41:59.267Z,99450.10
2018-07-27T23:44:27.711Z,99448.64
2018-07-27T23:46:56.223Z,99446.77
2018-07-27T23:49:24.991Z,99441.66
2018-07-27T23:51:53.411Z,99441.10
2018-07-27T23:54:21.999Z,99444.37
2018-07-27T23:56:50.582Z,99441.56
2018-07-27T23:59:19.007Z,99444.98
